sensor_id;sensor_type;location;lat;lon;timestamp;temperature;humidity
41838;DHT22;27511;52.042;5.178;2023-03-31T00:01:32;14.10;99.90
41838;DHT22;27511;52.042;5.178;2023-03-31T00:03:58;14.00;99.90
41838;DHT22;27511;52.042;5.178;2023-03-31T00:06:33;14.10;99.90
41838;DHT22;27511;52.042;5.178;2023-03-31T00:09:03;14.20;99.90
41838;DHT22;27511;52.042;5.178;2023-03-31T00:11:28;14.10;99.90
41838;DHT22;27511;52.042;5.178;2023-03-31T00:13:54;14.20;99.90
41838;DHT22;27511;52.042;5.178;2023-03-31T00:16:20;14.20;99.90
41838;DHT22;27511;52.042;5.178;2023-03-31T00:18:45;14.20;99.90
41838;DHT22;27511;52.042;5.178;2023-03-31T00:21:16;13.90;99.90
41838;DHT22;27511;52.042;5.178;2023-03-31T00:23:49;14.00;99.90
41838;DHT22;27511;52.042;5.178;2023-03-31T00:26:15;13.90;99.90
41838;DHT22;27511;52.042;5.178;2023-03-31T00:28:40;14.00;99.90
41838;DHT22;27511;52.042;5.178;2023-03-31T00:31:06;14.10;99.90
41838;DHT22;27511;52.042;5.178;2023-03-31T00:33:31;14.20;99.90
41838;DHT22;27511;52.042;5.178;2023-03-31T00:35:57;14.30;99.90
41838;DHT22;27511;52.042;5.178;2023-03-31T00:38:26;14.30;99.90
41838;DHT22;27511;52.042;5.178;2023-03-31T00:40:53;14.20;99.90
41838;DHT22;27511;52.042;5.178;2023-03-31T00:43:29;14.30;99.90
41838;DHT22;27511;52.042;5.178;2023-03-31T00:46:00;14.30;99.90
41838;DHT22;27511;52.042;5.178;2023-03-31T00:48:27;14.30;99.90
41838;DHT22;27511;52.042;5.178;2023-03-31T00:50:54;14.40;99.90
41838;DHT22;27511;52.042;5.178;2023-03-31T00:53:24;14.40;99.90
41838;DHT22;27511;52.042;5.178;2023-03-31T00:55:52;14.50;99.90
41838;DHT22;27511;52.042;5.178;2023-03-31T00:58:18;14.50;99.90
41838;DHT22;27511;52.042;5.178;2023-03-31T01:00:48;14.50;99.90
41838;DHT22;27511;52.042;5.178;2023-03-31T01:03:15;14.30;99.90
41838;DHT22;27511;52.042;5.178;2023-03-31T01:05:46;14.30;99.90
41838;DHT22;27511;52.042;5.178;2023-03-31T01:08:15;14.40;99.90
41838;DHT22;27511;52.042;5.178;2023-03-31T01:10:42;14.30;99.90
41838;DHT22;27511;52.042;5.178;2023-03-31T01:13:09;14.40;99.90
41838;DHT22;27511;52.042;5.178;2023-03-31T01:15:35;14.40;99.90
41838;DHT22;27511;52.042;5.178;2023-03-31T01:18:02;14.30;99.90
41838;DHT22;27511;52.042;5.178;2023-03-31T01:20:50;14.40;99.90
41838;DHT22;27511;52.042;5.178;2023-03-31T01:28:30;14.50;99.90
41838;DHT22;27511;52.042;5.178;2023-03-31T01:33:38;14.40;99.90
41838;DHT22;27511;52.042;5.178;2023-03-31T01:36:18;14.50;99.90
41838;DHT22;27511;52.042;5.178;2023-03-31T01:41:36;14.50;99.90
41838;DHT22;27511;52.042;5.178;2023-03-31T01:51:33;14.60;99.90
41838;DHT22;27511;52.042;5.178;2023-03-31T01:56:35;14.50;99.90
41838;DHT22;27511;52.042;5.178;2023-03-31T01:59:03;14.50;99.90
41838;DHT22;27511;52.042;5.178;2023-03-31T02:01:34;14.50;99.90
41838;DHT22;27511;52.042;5.178;2023-03-31T02:04:04;14.40;99.90
41838;DHT22;27511;52.042;5.178;2023-03-31T02:06:36;14.40;99.90
41838;DHT22;27511;52.042;5.178;2023-03-31T02:09:09;14.40;99.90
41838;DHT22;27511;52.042;5.178;2023-03-31T02:11:35;14.40;99.90
41838;DHT22;27511;52.042;5.178;2023-03-31T02:14:02;14.40;99.90
41838;DHT22;27511;52.042;5.178;2023-03-31T02:16:29;14.40;99.90
41838;DHT22;27511;52.042;5.178;2023-03-31T02:18:57;14.40;99.90
41838;DHT22;27511;52.042;5.178;2023-03-31T02:21:33;14.40;99.90
41838;DHT22;27511;52.042;5.178;2023-03-31T02:24:01;14.40;99.90
41838;DHT22;27511;52.042;5.178;2023-03-31T02:26:29;14.50;99.90
41838;DHT22;27511;52.042;5.178;2023-03-31T02:28:55;14.50;99.90
41838;DHT22;27511;52.042;5.178;2023-03-31T02:31:28;14.50;99.90
41838;DHT22;27511;52.042;5.178;2023-03-31T02:33:58;14.50;99.90
41838;DHT22;27511;52.042;5.178;2023-03-31T02:36:24;14.30;99.90
41838;DHT22;27511;52.042;5.178;2023-03-31T02:38:54;14.30;99.90
41838;DHT22;27511;52.042;5.178;2023-03-31T02:41:20;14.30;99.90
41838;DHT22;27511;52.042;5.178;2023-03-31T02:43:46;14.30;99.90
41838;DHT22;27511;52.042;5.178;2023-03-31T02:46:11;14.30;99.90
41838;DHT22;27511;52.042;5.178;2023-03-31T02:48:38;14.30;99.90
41838;DHT22;27511;52.042;5.178;2023-03-31T03:01:26;14.30;99.90
41838;DHT22;27511;52.042;5.178;2023-03-31T03:09:00;14.30;99.90
41838;DHT22;27511;52.042;5.178;2023-03-31T03:11:31;14.30;99.90
41838;DHT22;27511;52.042;5.178;2023-03-31T03:14:08;14.30;99.90
41838;DHT22;27511;52.042;5.178;2023-03-31T03:16:38;14.30;99.90
41838;DHT22;27511;52.042;5.178;2023-03-31T03:19:05;14.20;99.90
41838;DHT22;27511;52.042;5.178;2023-03-31T03:21:31;14.20;99.90
41838;DHT22;27511;52.042;5.178;2023-03-31T03:23:57;14.20;99.90
41838;DHT22;27511;52.042;5.178;2023-03-31T03:26:24;14.10;99.90
41838;DHT22;27511;52.042;5.178;2023-03-31T03:28:55;14.10;99.90
41838;DHT22;27511;52.042;5.178;2023-03-31T03:31:21;14.20;99.90
41838;DHT22;27511;52.042;5.178;2023-03-31T03:33:48;14.20;99.90
41838;DHT22;27511;52.042;5.178;2023-03-31T03:36:13;14.20;99.90
41838;DHT22;27511;52.042;5.178;2023-03-31T03:38:39;14.20;99.90
41838;DHT22;27511;52.042;5.178;2023-03-31T03:41:04;14.20;99.90
41838;DHT22;27511;52.042;5.178;2023-03-31T03:43:30;14.20;99.90
41838;DHT22;27511;52.042;5.178;2023-03-31T03:45:55;14.20;99.90
41838;DHT22;27511;52.042;5.178;2023-03-31T03:48:21;14.10;99.90
41838;DHT22;27511;52.042;5.178;2023-03-31T03:50:46;14.10;99.90
41838;DHT22;27511;52.042;5.178;2023-03-31T03:53:13;14.00;99.90
41838;DHT22;27511;52.042;5.178;2023-03-31T03:55:38;13.90;99.90
41838;DHT22;27511;52.042;5.178;2023-03-31T03:58:04;13.80;99.90
41838;DHT22;27511;52.042;5.178;2023-03-31T04:00:29;13.90;99.90
41838;DHT22;27511;52.042;5.178;2023-03-31T04:02:55;13.90;99.90
41838;DHT22;27511;52.042;5.178;2023-03-31T04:05:21;14.00;99.90
41838;DHT22;27511;52.042;5.178;2023-03-31T04:07:46;14.00;99.90
41838;DHT22;27511;52.042;5.178;2023-03-31T04:10:12;13.90;99.90
41838;DHT22;27511;52.042;5.178;2023-03-31T04:12:37;13.90;99.90
41838;DHT22;27511;52.042;5.178;2023-03-31T04:15:03;13.90;99.90
41838;DHT22;27511;52.042;5.178;2023-03-31T04:17:28;13.90;99.90
41838;DHT22;27511;52.042;5.178;2023-03-31T04:19:58;14.00;99.90
41838;DHT22;27511;52.042;5.178;2023-03-31T04:22:27;13.90;99.90
41838;DHT22;27511;52.042;5.178;2023-03-31T04:24:53;13.70;99.90
41838;DHT22;27511;52.042;5.178;2023-03-31T04:27:23;13.70;99.90
41838;DHT22;27511;52.042;5.178;2023-03-31T04:29:52;13.70;99.90
41838;DHT22;27511;52.042;5.178;2023-03-31T04:32:22;13.80;99.90
41838;DHT22;27511;52.042;5.178;2023-03-31T04:34:47;13.80;99.90
41838;DHT22;27511;52.042;5.178;2023-03-31T04:37:15;13.80;99.90
41838;DHT22;27511;52.042;5.178;2023-03-31T04:39:41;13.80;99.90
41838;DHT22;27511;52.042;5.178;2023-03-31T04:42:06;13.80;99.90
41838;DHT22;27511;52.042;5.178;2023-03-31T04:44:31;13.80;99.90
41838;DHT22;27511;52.042;5.178;2023-03-31T04:46:57;13.70;99.90
41838;DHT22;27511;52.042;5.178;2023-03-31T04:49:23;13.50;99.90
41838;DHT22;27511;52.042;5.178;2023-03-31T04:51:49;13.60;99.90
41838;DHT22;27511;52.042;5.178;2023-03-31T04:54:14;13.70;99.90
41838;DHT22;27511;52.042;5.178;2023-03-31T04:56:40;13.80;99.90
41838;DHT22;27511;52.042;5.178;2023-03-31T04:59:05;13.70;99.90
41838;DHT22;27511;52.042;5.178;2023-03-31T05:01:32;13.80;99.90
41838;DHT22;27511;52.042;5.178;2023-03-31T05:04:00;13.90;99.90
41838;DHT22;27511;52.042;5.178;2023-03-31T05:06:26;14.00;99.90
41838;DHT22;27511;52.042;5.178;2023-03-31T05:08:51;13.80;99.90
41838;DHT22;27511;52.042;5.178;2023-03-31T05:11:17;13.70;99.90
41838;DHT22;27511;52.042;5.178;2023-03-31T05:13:42;13.80;99.90
41838;DHT22;27511;52.042;5.178;2023-03-31T05:16:09;13.80;99.90
41838;DHT22;27511;52.042;5.178;2023-03-31T05:18:35;13.80;99.90
41838;DHT22;27511;52.042;5.178;2023-03-31T05:21:14;13.80;99.90
41838;DHT22;27511;52.042;5.178;2023-03-31T05:23:40;13.80;99.90
41838;DHT22;27511;52.042;5.178;2023-03-31T05:26:05;13.90;99.90
41838;DHT22;27511;52.042;5.178;2023-03-31T05:28:32;14.00;99.90
41838;DHT22;27511;52.042;5.178;2023-03-31T05:30:58;13.90;99.90
41838;DHT22;27511;52.042;5.178;2023-03-31T05:33:24;13.90;99.90
41838;DHT22;27511;52.042;5.178;2023-03-31T05:35:50;13.90;99.90
41838;DHT22;27511;52.042;5.178;2023-03-31T05:38:15;13.90;99.90
41838;DHT22;27511;52.042;5.178;2023-03-31T05:40:41;13.90;99.90
41838;DHT22;27511;52.042;5.178;2023-03-31T05:43:06;13.90;99.90
41838;DHT22;27511;52.042;5.178;2023-03-31T05:45:32;13.90;99.90
41838;DHT22;27511;52.042;5.178;2023-03-31T05:47:57;14.00;99.90
41838;DHT22;27511;52.042;5.178;2023-03-31T05:50:23;14.00;99.90
41838;DHT22;27511;52.042;5.178;2023-03-31T05:52:48;14.00;99.90
41838;DHT22;27511;52.042;5.178;2023-03-31T05:55:14;14.00;99.90
41838;DHT22;27511;52.042;5.178;2023-03-31T05:57:39;14.00;99.90
41838;DHT22;27511;52.042;5.178;2023-03-31T06:00:05;13.90;99.90
41838;DHT22;27511;52.042;5.178;2023-03-31T06:02:31;13.80;99.90
41838;DHT22;27511;52.042;5.178;2023-03-31T06:04:57;13.80;99.90
41838;DHT22;27511;52.042;5.178;2023-03-31T06:07:23;13.70;99.90
41838;DHT22;27511;52.042;5.178;2023-03-31T06:09:49;13.90;99.90
41838;DHT22;27511;52.042;5.178;2023-03-31T06:12:14;13.70;99.90
41838;DHT22;27511;52.042;5.178;2023-03-31T06:14:40;13.80;99.90
41838;DHT22;27511;52.042;5.178;2023-03-31T06:17:06;13.80;99.90
41838;DHT22;27511;52.042;5.178;2023-03-31T06:19:31;14.00;99.90
41838;DHT22;27511;52.042;5.178;2023-03-31T06:21:57;14.00;99.90
41838;DHT22;27511;52.042;5.178;2023-03-31T06:24:22;13.80;99.90
41838;DHT22;27511;52.042;5.178;2023-03-31T06:26:47;13.90;99.90
41838;DHT22;27511;52.042;5.178;2023-03-31T06:29:13;13.80;99.90
41838;DHT22;27511;52.042;5.178;2023-03-31T06:31:38;13.70;99.90
41838;DHT22;27511;52.042;5.178;2023-03-31T06:34:04;13.70;99.90
41838;DHT22;27511;52.042;5.178;2023-03-31T06:36:30;13.80;99.90
41838;DHT22;27511;52.042;5.178;2023-03-31T06:38:56;13.90;99.90
41838;DHT22;27511;52.042;5.178;2023-03-31T06:41:21;13.90;99.90
41838;DHT22;27511;52.042;5.178;2023-03-31T06:43:47;13.90;99.90
41838;DHT22;27511;52.042;5.178;2023-03-31T06:46:13;13.90;99.90
41838;DHT22;27511;52.042;5.178;2023-03-31T06:48:38;13.90;99.90
41838;DHT22;27511;52.042;5.178;2023-03-31T06:51:04;13.90;99.90
41838;DHT22;27511;52.042;5.178;2023-03-31T06:53:30;13.80;99.90
41838;DHT22;27511;52.042;5.178;2023-03-31T06:55:56;13.90;99.90
41838;DHT22;27511;52.042;5.178;2023-03-31T06:58:22;13.90;99.90
41838;DHT22;27511;52.042;5.178;2023-03-31T07:00:47;14.00;99.90
41838;DHT22;27511;52.042;5.178;2023-03-31T07:03:13;14.00;99.90
41838;DHT22;27511;52.042;5.178;2023-03-31T07:05:41;13.90;99.90
41838;DHT22;27511;52.042;5.178;2023-03-31T07:08:06;14.10;99.90
41838;DHT22;27511;52.042;5.178;2023-03-31T07:10:31;13.90;99.90
41838;DHT22;27511;52.042;5.178;2023-03-31T07:12:57;14.00;99.90
41838;DHT22;27511;52.042;5.178;2023-03-31T07:15:23;13.90;99.90
41838;DHT22;27511;52.042;5.178;2023-03-31T07:17:48;13.90;99.90
41838;DHT22;27511;52.042;5.178;2023-03-31T07:20:15;13.80;99.90
41838;DHT22;27511;52.042;5.178;2023-03-31T07:22:42;13.90;99.90
41838;DHT22;27511;52.042;5.178;2023-03-31T07:25:07;14.00;99.90
41838;DHT22;27511;52.042;5.178;2023-03-31T07:27:33;14.00;99.90
41838;DHT22;27511;52.042;5.178;2023-03-31T07:29:59;13.90;99.90
41838;DHT22;27511;52.042;5.178;2023-03-31T07:32:24;13.90;99.90
41838;DHT22;27511;52.042;5.178;2023-03-31T07:34:50;13.90;99.90
41838;DHT22;27511;52.042;5.178;2023-03-31T07:37:15;13.90;99.90
41838;DHT22;27511;52.042;5.178;2023-03-31T07:39:41;13.90;99.90
41838;DHT22;27511;52.042;5.178;2023-03-31T07:42:06;14.00;99.90
41838;DHT22;27511;52.042;5.178;2023-03-31T07:44:32;14.10;99.90
41838;DHT22;27511;52.042;5.178;2023-03-31T07:46:58;14.10;99.90
41838;DHT22;27511;52.042;5.178;2023-03-31T07:49:29;14.10;99.90
41838;DHT22;27511;52.042;5.178;2023-03-31T07:51:54;14.10;99.90
41838;DHT22;27511;52.042;5.178;2023-03-31T07:54:20;14.10;99.90
41838;DHT22;27511;52.042;5.178;2023-03-31T07:56:45;14.10;99.90
41838;DHT22;27511;52.042;5.178;2023-03-31T07:59:11;14.10;99.90
41838;DHT22;27511;52.042;5.178;2023-03-31T08:01:36;14.30;99.90
41838;DHT22;27511;52.042;5.178;2023-03-31T08:04:02;13.90;99.90
41838;DHT22;27511;52.042;5.178;2023-03-31T08:06:28;14.20;99.90
41838;DHT22;27511;52.042;5.178;2023-03-31T08:08:54;14.20;99.90
41838;DHT22;27511;52.042;5.178;2023-03-31T08:11:19;14.40;99.90
41838;DHT22;27511;52.042;5.178;2023-03-31T08:13:45;14.40;99.90
41838;DHT22;27511;52.042;5.178;2023-03-31T08:16:11;14.40;99.90
41838;DHT22;27511;52.042;5.178;2023-03-31T08:18:36;14.40;99.90
41838;DHT22;27511;52.042;5.178;2023-03-31T08:21:02;14.50;99.90
41838;DHT22;27511;52.042;5.178;2023-03-31T08:23:27;14.50;99.90
41838;DHT22;27511;52.042;5.178;2023-03-31T08:25:52;14.50;99.90
41838;DHT22;27511;52.042;5.178;2023-03-31T08:28:18;14.60;99.90
41838;DHT22;27511;52.042;5.178;2023-03-31T08:30:43;14.40;99.90
41838;DHT22;27511;52.042;5.178;2023-03-31T08:33:09;14.40;99.90
41838;DHT22;27511;52.042;5.178;2023-03-31T08:35:36;14.60;99.90
41838;DHT22;27511;52.042;5.178;2023-03-31T08:38:02;14.60;99.90
41838;DHT22;27511;52.042;5.178;2023-03-31T08:40:28;14.70;99.90
41838;DHT22;27511;52.042;5.178;2023-03-31T08:42:56;14.70;99.90
41838;DHT22;27511;52.042;5.178;2023-03-31T08:47:59;14.60;99.90
41838;DHT22;27511;52.042;5.178;2023-03-31T08:50:27;14.60;99.90
41838;DHT22;27511;52.042;5.178;2023-03-31T08:53:03;14.60;99.90
41838;DHT22;27511;52.042;5.178;2023-03-31T08:55:44;14.70;99.90
41838;DHT22;27511;52.042;5.178;2023-03-31T09:00:43;14.70;99.90
41838;DHT22;27511;52.042;5.178;2023-03-31T09:03:14;14.70;99.90
41838;DHT22;27511;52.042;5.178;2023-03-31T09:11:12;14.90;99.90
41838;DHT22;27511;52.042;5.178;2023-03-31T09:18:38;14.90;99.90
41838;DHT22;27511;52.042;5.178;2023-03-31T09:23:54;15.10;99.90
41838;DHT22;27511;52.042;5.178;2023-03-31T09:26:26;15.30;99.90
41838;DHT22;27511;52.042;5.178;2023-03-31T09:28:54;15.40;99.90
41838;DHT22;27511;52.042;5.178;2023-03-31T09:31:21;15.40;99.90
41838;DHT22;27511;52.042;5.178;2023-03-31T09:33:47;15.30;99.90
41838;DHT22;27511;52.042;5.178;2023-03-31T09:36:16;15.30;99.90
41838;DHT22;27511;52.042;5.178;2023-03-31T09:38:42;15.20;99.90
41838;DHT22;27511;52.042;5.178;2023-03-31T09:41:08;15.20;99.90
41838;DHT22;27511;52.042;5.178;2023-03-31T09:43:35;15.10;99.90
41838;DHT22;27511;52.042;5.178;2023-03-31T09:46:01;15.20;99.90
41838;DHT22;27511;52.042;5.178;2023-03-31T09:48:28;15.30;99.90
41838;DHT22;27511;52.042;5.178;2023-03-31T09:50:59;15.20;99.90
41838;DHT22;27511;52.042;5.178;2023-03-31T09:53:37;15.30;99.90
41838;DHT22;27511;52.042;5.178;2023-03-31T09:56:04;15.50;99.90
41838;DHT22;27511;52.042;5.178;2023-03-31T09:58:39;15.70;99.90
41838;DHT22;27511;52.042;5.178;2023-03-31T10:01:05;15.80;99.90
41838;DHT22;27511;52.042;5.178;2023-03-31T10:03:31;15.60;99.90
41838;DHT22;27511;52.042;5.178;2023-03-31T10:06:01;15.60;99.90
41838;DHT22;27511;52.042;5.178;2023-03-31T10:08:33;15.60;99.90
41838;DHT22;27511;52.042;5.178;2023-03-31T10:13:29;15.80;99.90
41838;DHT22;27511;52.042;5.178;2023-03-31T10:16:03;15.60;99.90
41838;DHT22;27511;52.042;5.178;2023-03-31T10:18:38;15.90;99.90
41838;DHT22;27511;52.042;5.178;2023-03-31T10:21:04;16.00;99.90
41838;DHT22;27511;52.042;5.178;2023-03-31T10:23:31;15.90;99.90
41838;DHT22;27511;52.042;5.178;2023-03-31T10:25:57;16.00;99.90
41838;DHT22;27511;52.042;5.178;2023-03-31T10:28:23;16.00;99.90
41838;DHT22;27511;52.042;5.178;2023-03-31T10:30:57;16.20;99.90
41838;DHT22;27511;52.042;5.178;2023-03-31T10:33:26;16.10;99.90
41838;DHT22;27511;52.042;5.178;2023-03-31T10:35:58;16.10;99.90
41838;DHT22;27511;52.042;5.178;2023-03-31T10:38:31;16.00;99.90
41838;DHT22;27511;52.042;5.178;2023-03-31T10:40:59;16.00;99.90
41838;DHT22;27511;52.042;5.178;2023-03-31T10:45:51;16.00;99.90
41838;DHT22;27511;52.042;5.178;2023-03-31T10:48:23;16.00;99.90
41838;DHT22;27511;52.042;5.178;2023-03-31T10:50:49;16.00;99.90
41838;DHT22;27511;52.042;5.178;2023-03-31T10:53:15;15.90;99.90
41838;DHT22;27511;52.042;5.178;2023-03-31T10:58:29;15.80;99.90
41838;DHT22;27511;52.042;5.178;2023-03-31T11:01:06;15.80;99.90
41838;DHT22;27511;52.042;5.178;2023-03-31T11:03:47;15.80;99.90
41838;DHT22;27511;52.042;5.178;2023-03-31T11:06:16;15.70;99.90
41838;DHT22;27511;52.042;5.178;2023-03-31T11:08:48;15.70;99.90
41838;DHT22;27511;52.042;5.178;2023-03-31T11:13:54;15.70;99.90
41838;DHT22;27511;52.042;5.178;2023-03-31T11:19:06;15.60;99.90
41838;DHT22;27511;52.042;5.178;2023-03-31T11:21:41;15.40;99.90
41838;DHT22;27511;52.042;5.178;2023-03-31T11:29:55;15.30;99.90
41838;DHT22;27511;52.042;5.178;2023-03-31T11:32:28;15.30;99.90
41838;DHT22;27511;52.042;5.178;2023-03-31T11:42:25;15.10;99.90
41838;DHT22;27511;52.042;5.178;2023-03-31T11:44:53;15.00;99.90
41838;DHT22;27511;52.042;5.178;2023-03-31T11:47:22;15.00;99.90
41838;DHT22;27511;52.042;5.178;2023-03-31T11:49:56;15.00;99.90
41838;DHT22;27511;52.042;5.178;2023-03-31T11:52:30;15.20;99.90
41838;DHT22;27511;52.042;5.178;2023-03-31T11:54:58;15.20;99.90
41838;DHT22;27511;52.042;5.178;2023-03-31T11:57:27;15.00;99.90
41838;DHT22;27511;52.042;5.178;2023-03-31T12:05:10;15.20;99.90
41838;DHT22;27511;52.042;5.178;2023-03-31T12:12:44;15.40;99.90
41838;DHT22;27511;52.042;5.178;2023-03-31T12:17:58;15.30;99.90
41838;DHT22;27511;52.042;5.178;2023-03-31T12:22:53;15.00;99.90
41838;DHT22;27511;52.042;5.178;2023-03-31T12:25:20;15.00;99.90
41838;DHT22;27511;52.042;5.178;2023-03-31T12:27:50;15.10;99.90
41838;DHT22;27511;52.042;5.178;2023-03-31T12:30:29;15.30;99.90
41838;DHT22;27511;52.042;5.178;2023-03-31T12:33:01;15.50;99.90
41838;DHT22;27511;52.042;5.178;2023-03-31T12:40:55;15.40;99.90
41838;DHT22;27511;52.042;5.178;2023-03-31T12:57:19;15.50;99.90
41838;DHT22;27511;52.042;5.178;2023-03-31T12:59:45;15.70;99.90
41838;DHT22;27511;52.042;5.178;2023-03-31T13:02:29;15.60;99.90
41838;DHT22;27511;52.042;5.178;2023-03-31T13:04:55;15.80;99.90
41838;DHT22;27511;52.042;5.178;2023-03-31T13:09:55;15.70;99.90
41838;DHT22;27511;52.042;5.178;2023-03-31T13:12:22;15.70;99.90
41838;DHT22;27511;52.042;5.178;2023-03-31T13:14:51;15.50;99.90
41838;DHT22;27511;52.042;5.178;2023-03-31T13:19:50;15.40;99.90
41838;DHT22;27511;52.042;5.178;2023-03-31T13:22:31;15.30;99.90
41838;DHT22;27511;52.042;5.178;2023-03-31T13:27:48;15.00;99.90
41838;DHT22;27511;52.042;5.178;2023-03-31T13:33:02;14.80;99.90
41838;DHT22;27511;52.042;5.178;2023-03-31T13:35:29;14.90;99.90
41838;DHT22;27511;52.042;5.178;2023-03-31T13:38:00;14.80;99.90
41838;DHT22;27511;52.042;5.178;2023-03-31T13:45:44;15.00;99.90
41838;DHT22;27511;52.042;5.178;2023-03-31T14:06:04;15.60;99.90
41838;DHT22;27511;52.042;5.178;2023-03-31T14:11:22;15.60;99.90
41838;DHT22;27511;52.042;5.178;2023-03-31T14:14:01;15.50;99.90
41838;DHT22;27511;52.042;5.178;2023-03-31T14:16:28;15.40;99.90
41838;DHT22;27511;52.042;5.178;2023-03-31T14:18:59;15.40;99.90
41838;DHT22;27511;52.042;5.178;2023-03-31T14:21:32;15.30;99.90
41838;DHT22;27511;52.042;5.178;2023-03-31T14:24:07;15.30;99.90
41838;DHT22;27511;52.042;5.178;2023-03-31T14:26:38;15.20;99.90
41838;DHT22;27511;52.042;5.178;2023-03-31T14:34:34;14.90;99.90
41838;DHT22;27511;52.042;5.178;2023-03-31T14:37:13;14.90;99.90
41838;DHT22;27511;52.042;5.178;2023-03-31T14:39:42;14.90;99.90
41838;DHT22;27511;52.042;5.178;2023-03-31T14:42:12;14.80;99.90
41838;DHT22;27511;52.042;5.178;2023-03-31T14:44:39;14.70;99.90
41838;DHT22;27511;52.042;5.178;2023-03-31T14:47:40;14.70;99.90
41838;DHT22;27511;52.042;5.178;2023-03-31T14:50:04;14.70;99.90
41838;DHT22;27511;52.042;5.178;2023-03-31T14:52:31;14.80;99.90
41838;DHT22;27511;52.042;5.178;2023-03-31T14:54:58;14.80;99.90
41838;DHT22;27511;52.042;5.178;2023-03-31T14:57:26;14.90;99.90
41838;DHT22;27511;52.042;5.178;2023-03-31T14:59:53;14.80;99.90
41838;DHT22;27511;52.042;5.178;2023-03-31T15:03:02;14.90;99.90
41838;DHT22;27511;52.042;5.178;2023-03-31T15:05:09;14.90;99.90
41838;DHT22;27511;52.042;5.178;2023-03-31T15:07:39;14.70;99.90
41838;DHT22;27511;52.042;5.178;2023-03-31T15:10:05;14.80;99.90
41838;DHT22;27511;52.042;5.178;2023-03-31T15:12:31;14.80;99.90
41838;DHT22;27511;52.042;5.178;2023-03-31T15:14:59;14.80;99.90
41838;DHT22;27511;52.042;5.178;2023-03-31T15:17:30;14.60;99.90
41838;DHT22;27511;52.042;5.178;2023-03-31T15:20:00;14.60;99.90
41838;DHT22;27511;52.042;5.178;2023-03-31T15:22:28;14.60;99.90
41838;DHT22;27511;52.042;5.178;2023-03-31T15:24:54;14.70;99.90
41838;DHT22;27511;52.042;5.178;2023-03-31T15:30:24;14.80;99.90
41838;DHT22;27511;52.042;5.178;2023-03-31T15:32:52;14.90;99.90
41838;DHT22;27511;52.042;5.178;2023-03-31T15:35:24;14.80;99.90
41838;DHT22;27511;52.042;5.178;2023-03-31T15:37:52;14.90;99.90
41838;DHT22;27511;52.042;5.178;2023-03-31T15:40:23;14.90;99.90
41838;DHT22;27511;52.042;5.178;2023-03-31T15:42:49;14.80;99.90
41838;DHT22;27511;52.042;5.178;2023-03-31T15:45:50;14.60;99.90
41838;DHT22;27511;52.042;5.178;2023-03-31T15:48:13;14.60;99.90
41838;DHT22;27511;52.042;5.178;2023-03-31T15:50:40;14.60;99.90
41838;DHT22;27511;52.042;5.178;2023-03-31T15:53:19;14.80;99.90
41838;DHT22;27511;52.042;5.178;2023-03-31T15:55:45;14.80;99.90
41838;DHT22;27511;52.042;5.178;2023-03-31T15:58:14;14.70;99.90
41838;DHT22;27511;52.042;5.178;2023-03-31T16:03:12;14.80;99.90
41838;DHT22;27511;52.042;5.178;2023-03-31T16:05:57;14.80;99.90
41838;DHT22;27511;52.042;5.178;2023-03-31T16:11:14;14.80;99.90
41838;DHT22;27511;52.042;5.178;2023-03-31T16:13:41;14.60;99.90
41838;DHT22;27511;52.042;5.178;2023-03-31T16:16:09;14.50;99.90
41838;DHT22;27511;52.042;5.178;2023-03-31T16:18:39;14.40;99.90
41838;DHT22;27511;52.042;5.178;2023-03-31T16:21:07;14.30;99.90
41838;DHT22;27511;52.042;5.178;2023-03-31T16:23:34;14.20;99.90
41838;DHT22;27511;52.042;5.178;2023-03-31T16:26:02;14.40;99.90
41838;DHT22;27511;52.042;5.178;2023-03-31T16:28:29;14.50;99.90
41838;DHT22;27511;52.042;5.178;2023-03-31T16:30:55;14.70;99.90
41838;DHT22;27511;52.042;5.178;2023-03-31T16:33:23;14.60;99.90
41838;DHT22;27511;52.042;5.178;2023-03-31T16:35:50;14.70;99.90
41838;DHT22;27511;52.042;5.178;2023-03-31T16:38:18;14.60;99.90
41838;DHT22;27511;52.042;5.178;2023-03-31T16:40:46;14.70;99.90
41838;DHT22;27511;52.042;5.178;2023-03-31T16:43:13;14.60;99.90
41838;DHT22;27511;52.042;5.178;2023-03-31T16:45:43;14.60;99.90
41838;DHT22;27511;52.042;5.178;2023-03-31T16:48:08;14.60;99.90
41838;DHT22;27511;52.042;5.178;2023-03-31T16:50:34;14.60;99.90
41838;DHT22;27511;52.042;5.178;2023-03-31T16:53:00;14.40;99.90
41838;DHT22;27511;52.042;5.178;2023-03-31T16:55:26;14.30;99.90
41838;DHT22;27511;52.042;5.178;2023-03-31T16:57:52;14.30;99.90
41838;DHT22;27511;52.042;5.178;2023-03-31T17:00:17;14.40;99.90
41838;DHT22;27511;52.042;5.178;2023-03-31T17:02:43;14.40;99.90
41838;DHT22;27511;52.042;5.178;2023-03-31T17:05:08;14.30;99.90
41838;DHT22;27511;52.042;5.178;2023-03-31T17:07:34;14.40;99.90
41838;DHT22;27511;52.042;5.178;2023-03-31T17:10:00;14.30;99.90
41838;DHT22;27511;52.042;5.178;2023-03-31T17:12:25;14.20;99.90
41838;DHT22;27511;52.042;5.178;2023-03-31T17:14:51;14.20;99.90
41838;DHT22;27511;52.042;5.178;2023-03-31T17:17:16;14.10;99.90
41838;DHT22;27511;52.042;5.178;2023-03-31T17:19:41;14.00;99.90
41838;DHT22;27511;52.042;5.178;2023-03-31T17:22:07;14.10;99.90
41838;DHT22;27511;52.042;5.178;2023-03-31T17:24:32;14.20;99.90
41838;DHT22;27511;52.042;5.178;2023-03-31T17:26:58;14.20;99.90
41838;DHT22;27511;52.042;5.178;2023-03-31T17:29:24;14.10;99.90
41838;DHT22;27511;52.042;5.178;2023-03-31T17:31:50;14.10;99.90
41838;DHT22;27511;52.042;5.178;2023-03-31T17:34:16;14.30;99.90
41838;DHT22;27511;52.042;5.178;2023-03-31T17:36:42;14.10;99.90
41838;DHT22;27511;52.042;5.178;2023-03-31T17:39:08;13.90;99.90
41838;DHT22;27511;52.042;5.178;2023-03-31T17:41:34;13.90;99.90
41838;DHT22;27511;52.042;5.178;2023-03-31T17:44:00;13.90;99.90
41838;DHT22;27511;52.042;5.178;2023-03-31T17:46:26;14.10;99.90
41838;DHT22;27511;52.042;5.178;2023-03-31T17:48:51;13.90;99.90
41838;DHT22;27511;52.042;5.178;2023-03-31T17:51:19;13.90;99.90
41838;DHT22;27511;52.042;5.178;2023-03-31T17:53:45;13.80;99.90
41838;DHT22;27511;52.042;5.178;2023-03-31T17:56:11;13.90;99.90
41838;DHT22;27511;52.042;5.178;2023-03-31T17:58:37;13.90;99.90
41838;DHT22;27511;52.042;5.178;2023-03-31T18:01:03;13.90;99.90
41838;DHT22;27511;52.042;5.178;2023-03-31T18:03:29;13.80;99.90
41838;DHT22;27511;52.042;5.178;2023-03-31T18:05:55;14.00;99.90
41838;DHT22;27511;52.042;5.178;2023-03-31T18:08:20;14.10;99.90
41838;DHT22;27511;52.042;5.178;2023-03-31T18:10:46;13.90;99.90
41838;DHT22;27511;52.042;5.178;2023-03-31T18:13:11;14.00;99.90
41838;DHT22;27511;52.042;5.178;2023-03-31T18:15:37;14.20;99.90
41838;DHT22;27511;52.042;5.178;2023-03-31T18:18:03;14.10;99.90
41838;DHT22;27511;52.042;5.178;2023-03-31T18:20:28;14.10;99.90